createdAt,value
2023-01-19T00:00:27.711Z,84.19
2023-01-19T00:02:54.869Z,84.22
2023-01-19T00:05:21.465Z,84.22
2023-01-19T00:07:48.130Z,84.71
2023-01-19T00:10:14.626Z,84.80
2023-01-19T00:12:40.973Z,85.10
2023-01-19T00:15:08.197Z,85.26
2023-01-19T00:17:35.052Z,85.35
2023-01-19T00:20:01.496Z,85.50
2023-01-19T00:22:27.900Z,85.88
2023-01-19T00:24:54.294Z,85.31
2023-01-19T00:27:20.754Z,85.67
2023-01-19T00:29:47.155Z,85.46
2023-01-19T00:32:13.598Z,85.49
2023-01-19T00:34:42.647Z,85.36
2023-01-19T00:37:10.112Z,85.53
2023-01-19T00:39:36.658Z,85.59
2023-01-19T00:42:22.110Z,85.65
2023-01-19T00:44:48.702Z,86.07
2023-01-19T00:47:15.089Z,86.02
2023-01-19T00:49:41.539Z,85.67
2023-01-19T00:52:08.096Z,86.10
2023-01-19T00:54:34.472Z,85.66
2023-01-19T00:57:01.324Z,86.00
2023-01-19T00:59:27.769Z,86.24
2023-01-19T01:01:54.248Z,86.09
2023-01-19T01:04:20.689Z,86.53
2023-01-19T01:06:47.212Z,86.68
2023-01-19T01:09:13.789Z,86.91
2023-01-19T01:11:43.657Z,87.26
2023-01-19T01:14:12.185Z,87.43
2023-01-19T01:16:39.515Z,87.56
2023-01-19T01:19:06.165Z,87.55
2023-01-19T01:21:34.654Z,87.55
2023-01-19T01:24:01.777Z,87.72
2023-01-19T01:26:28.371Z,87.88
2023-01-19T01:28:54.787Z,88.02
2023-01-19T01:31:21.185Z,88.06
2023-01-19T01:33:47.599Z,88.47
2023-01-19T01:36:14.195Z,88.04
2023-01-19T01:38:41.558Z,87.96
2023-01-19T01:41:09.042Z,88.40
2023-01-19T01:43:50.858Z,87.91
2023-01-19T01:46:18.070Z,88.12
2023-01-19T01:49:00.516Z,87.73
2023-01-19T01:51:29.934Z,87.89
2023-01-19T01:54:14.735Z,88.08
2023-01-19T01:56:46.963Z,88.06
2023-01-19T01:59:25.745Z,88.06
2023-01-19T02:02:15.970Z,87.68
2023-01-19T02:04:47.745Z,87.49
2023-01-19T02:07:40.012Z,87.43
2023-01-19T02:10:25.519Z,87.63
2023-01-19T02:13:10.752Z,87.64
2023-01-19T02:15:37.105Z,87.51
2023-01-19T02:18:03.595Z,87.29
2023-01-19T02:20:31.714Z,87.98
2023-01-19T02:23:03.770Z,87.97
2023-01-19T02:25:30.693Z,88.26
2023-01-19T02:27:57.362Z,88.53
2023-01-19T02:30:24.152Z,88.55
2023-01-19T02:32:50.677Z,88.14
2023-01-19T02:35:17.384Z,88.07
2023-01-19T02:37:44.977Z,88.25
2023-01-19T02:40:15.053Z,88.43
2023-01-19T02:42:53.014Z,88.07
2023-01-19T02:45:21.891Z,88.10
2023-01-19T02:47:51.541Z,88.05
2023-01-19T02:50:50.534Z,87.73
2023-01-19T02:53:45.481Z,88.50
2023-01-19T02:56:30.233Z,88.57
2023-01-19T02:59:33.631Z,88.31
2023-01-19T03:02:16.432Z,88.44
2023-01-19T03:05:00.272Z,88.00
2023-01-19T03:08:04.411Z,88.25
2023-01-19T03:11:05.142Z,88.00
2023-01-19T03:13:52.856Z,88.65
2023-01-19T03:16:21.808Z,88.38
2023-01-19T03:18:55.724Z,88.63
2023-01-19T03:21:27.475Z,88.65
2023-01-19T03:23:58.089Z,88.35
2023-01-19T03:26:29.755Z,88.50
2023-01-19T03:29:00.446Z,88.05
2023-01-19T03:31:31.922Z,87.96
2023-01-19T03:34:03.941Z,88.42
2023-01-19T03:36:34.725Z,88.46
2023-01-19T03:39:04.384Z,88.51
2023-01-19T03:41:34.203Z,88.39
2023-01-19T03:44:01.677Z,88.51
2023-01-19T03:46:28.682Z,88.77
2023-01-19T03:48:55.186Z,88.72
2023-01-19T03:51:21.977Z,88.64
2023-01-19T03:53:49.987Z,88.82
2023-01-19T03:56:24.578Z,88.43
2023-01-19T03:58:51.650Z,88.25
2023-01-19T04:01:22.720Z,88.03
2023-01-19T04:03:50.445Z,88.24
2023-01-19T04:06:17.234Z,87.91
2023-01-19T04:08:43.662Z,88.12
2023-01-19T04:11:10.281Z,87.79
2023-01-19T04:13:36.898Z,87.74
2023-01-19T04:16:04.578Z,87.74
2023-01-19T04:18:34.704Z,87.64
2023-01-19T04:21:03.982Z,87.35
2023-01-19T04:23:30.759Z,87.62
2023-01-19T04:26:02.864Z,87.75
2023-01-19T04:28:29.865Z,87.48
2023-01-19T04:30:56.260Z,87.19
2023-01-19T04:33:22.990Z,87.06
2023-01-19T04:35:52.301Z,87.36
2023-01-19T04:38:20.551Z,87.06
2023-01-19T04:40:48.479Z,87.50
2023-01-19T04:43:15.224Z,87.30
2023-01-19T04:45:41.808Z,87.48
2023-01-19T04:48:08.304Z,87.21
2023-01-19T04:50:34.697Z,87.04
2023-01-19T04:53:02.357Z,86.98
2023-01-19T04:55:28.910Z,87.10
2023-01-19T04:57:55.552Z,86.97
2023-01-19T05:00:22.233Z,87.26
2023-01-19T05:02:48.814Z,87.19
2023-01-19T05:05:15.487Z,87.12
2023-01-19T05:07:42.798Z,87.06
2023-01-19T05:10:09.855Z,87.20
2023-01-19T05:12:36.499Z,87.58
2023-01-19T05:15:03.483Z,87.76
2023-01-19T05:17:30.269Z,88.29
2023-01-19T05:19:56.667Z,88.81
2023-01-19T05:22:23.043Z,89.60
2023-01-19T05:24:49.537Z,90.18
2023-01-19T05:27:16.016Z,90.88
2023-01-19T05:29:42.408Z,90.92
2023-01-19T05:32:08.926Z,91.82
2023-01-19T05:34:35.296Z,91.65
2023-01-19T05:37:01.683Z,91.80
2023-01-19T05:39:28.601Z,92.17
2023-01-19T05:41:54.965Z,91.97
2023-01-19T05:44:22.215Z,92.31
2023-01-19T05:46:48.627Z,92.62
2023-01-19T05:49:15.116Z,92.98
2023-01-19T05:51:45.235Z,93.67
2023-01-19T05:54:17.281Z,93.72
2023-01-19T05:56:43.815Z,94.42
2023-01-19T05:59:10.857Z,94.46
2023-01-19T06:01:39.902Z,95.17
2023-01-19T06:04:06.665Z,95.70
2023-01-19T06:06:33.024Z,95.79
2023-01-19T06:08:59.433Z,96.10
2023-01-19T06:11:26.085Z,96.57
2023-01-19T06:13:52.891Z,96.86
2023-01-19T06:16:19.473Z,97.14
2023-01-19T06:18:52.361Z,97.91
2023-01-19T06:21:18.753Z,98.06
2023-01-19T06:23:45.146Z,98.46
2023-01-19T06:26:11.589Z,98.70
2023-01-19T06:28:37.934Z,99.18
2023-01-19T06:31:04.492Z,99.74
2023-01-19T06:33:31.437Z,99.86
2023-01-19T06:35:57.807Z,100.00
2023-01-19T06:38:24.275Z,100.00
2023-01-19T06:40:58.541Z,100.00
2023-01-19T06:43:26.234Z,100.00
2023-01-19T06:45:52.917Z,100.00
2023-01-19T06:48:19.984Z,100.00
2023-01-19T06:50:47.248Z,100.00
2023-01-19T06:53:16.659Z,100.00
2023-01-19T06:55:46.514Z,100.00
2023-01-19T06:58:13.543Z,100.00
2023-01-19T07:00:40.336Z,100.00
2023-01-19T07:03:21.349Z,100.00
2023-01-19T07:05:51.564Z,100.00
2023-01-19T07:08:18.268Z,100.00
2023-01-19T07:11:25.948Z,100.00
2023-01-19T07:13:31.758Z,100.00
2023-01-19T07:15:58.233Z,100.00
2023-01-19T07:18:24.575Z,100.00
2023-01-19T07:20:51.992Z,100.00
2023-01-19T07:23:18.381Z,100.00
2023-01-19T07:25:46.285Z,100.00
2023-01-19T07:28:15.666Z,100.00
2023-01-19T07:30:43.871Z,100.00
2023-01-19T07:33:10.233Z,100.00
2023-01-19T07:35:36.565Z,100.00
2023-01-19T07:38:03.396Z,100.00
2023-01-19T07:40:29.908Z,100.00
2023-01-19T07:42:56.293Z,100.00
2023-01-19T07:45:22.770Z,100.00
2023-01-19T07:47:49.908Z,100.00
2023-01-19T07:50:17.625Z,100.00
2023-01-19T07:52:44.696Z,100.00
2023-01-19T07:55:11.067Z,100.00
2023-01-19T07:57:37.493Z,100.00
2023-01-19T08:00:05.020Z,100.00
2023-01-19T08:02:33.986Z,100.00
2023-01-19T08:05:00.341Z,100.00
2023-01-19T08:07:26.849Z,100.00
2023-01-19T08:09:53.366Z,100.00
2023-01-19T08:12:19.849Z,100.00
2023-01-19T08:14:46.328Z,100.00
2023-01-19T08:17:13.564Z,100.00
2023-01-19T08:19:41.598Z,100.00
2023-01-19T08:22:08.166Z,100.00
2023-01-19T08:24:34.541Z,100.00
2023-01-19T08:27:02.390Z,100.00
2023-01-19T08:29:32.077Z,100.00
2023-01-19T08:32:00.114Z,100.00
2023-01-19T08:34:27.139Z,100.00
2023-01-19T08:36:54.018Z,100.00
2023-01-19T08:39:20.485Z,100.00
2023-01-19T08:41:46.885Z,100.00
2023-01-19T08:44:13.309Z,100.00
2023-01-19T08:46:39.698Z,100.00
2023-01-19T08:49:06.152Z,100.00
2023-01-19T08:51:32.894Z,100.00
2023-01-19T08:53:59.296Z,100.00
2023-01-19T08:56:25.754Z,100.00
2023-01-19T08:59:07.803Z,100.00
2023-01-19T09:01:36.971Z,100.00
2023-01-19T09:04:03.593Z,100.00
2023-01-19T09:06:29.994Z,100.00
2023-01-19T09:08:57.508Z,100.00
2023-01-19T09:11:23.898Z,100.00
2023-01-19T09:13:50.573Z,100.00
2023-01-19T09:16:16.988Z,100.00
2023-01-19T09:18:45.033Z,100.00
2023-01-19T09:21:11.761Z,100.00
2023-01-19T09:23:38.227Z,100.00
2023-01-19T09:26:05.888Z,100.00
2023-01-19T09:28:32.460Z,100.00
2023-01-19T09:30:59.550Z,100.00
2023-01-19T09:33:35.628Z,100.00
2023-01-19T09:36:02.292Z,100.00
2023-01-19T09:38:32.557Z,100.00
2023-01-19T09:41:00.325Z,100.00
2023-01-19T09:43:41.399Z,100.00
2023-01-19T09:46:30.142Z,100.00
2023-01-19T09:48:59.653Z,100.00
2023-01-19T09:51:28.869Z,100.00
2023-01-19T09:54:14.523Z,100.00
2023-01-19T09:56:42.358Z,100.00
2023-01-19T09:59:29.865Z,100.00
2023-01-19T10:02:02.295Z,100.00
2023-01-19T10:04:41.939Z,100.00
2023-01-19T10:07:34.695Z,100.00
2023-01-19T10:10:20.757Z,100.00
2023-01-19T10:13:15.277Z,100.00
2023-01-19T10:15:47.912Z,100.00
2023-01-19T10:18:36.802Z,100.00
2023-01-19T10:21:11.008Z,100.00
2023-01-19T10:23:52.183Z,100.00
2023-01-19T10:26:23.906Z,100.00
2023-01-19T10:28:55.700Z,100.00
2023-01-19T10:31:24.233Z,100.00
2023-01-19T10:33:52.202Z,100.00
2023-01-19T10:36:24.319Z,100.00
2023-01-19T10:38:51.900Z,100.00
2023-01-19T10:41:24.339Z,100.00
2023-01-19T10:43:59.484Z,100.00
2023-01-19T10:46:45.562Z,100.00
2023-01-19T10:49:37.845Z,100.00
2023-01-19T10:52:08.027Z,100.00
2023-01-19T10:54:37.287Z,100.00
2023-01-19T10:57:08.043Z,100.00
2023-01-19T10:59:46.544Z,100.00
2023-01-19T11:02:49.272Z,100.00
2023-01-19T11:05:27.896Z,100.00
2023-01-19T11:07:54.324Z,100.00
2023-01-19T11:10:29.104Z,100.00
2023-01-19T11:13:12.406Z,100.00
2023-01-19T11:15:44.214Z,100.00
2023-01-19T11:18:30.522Z,100.00
2023-01-19T11:21:02.130Z,100.00
2023-01-19T11:23:32.492Z,100.00
2023-01-19T11:26:01.554Z,100.00
2023-01-19T11:28:35.577Z,100.00
2023-01-19T11:31:15.152Z,100.00
2023-01-19T11:33:49.049Z,100.00
2023-01-19T11:36:20.978Z,100.00
2023-01-19T11:38:52.864Z,100.00
2023-01-19T11:41:27.826Z,100.00
2023-01-19T11:44:17.283Z,100.00
2023-01-19T11:46:47.985Z,100.00
2023-01-19T11:49:27.328Z,100.00
2023-01-19T11:52:04.494Z,100.00
2023-01-19T11:54:37.074Z,100.00
2023-01-19T11:57:11.743Z,100.00
2023-01-19T11:59:38.203Z,100.00
2023-01-19T12:02:16.572Z,100.00
2023-01-19T12:04:44.511Z,100.00
2023-01-19T12:07:13.305Z,100.00
2023-01-19T12:09:45.447Z,100.00
2023-01-19T12:12:27.336Z,100.00
2023-01-19T12:15:05.031Z,100.00
2023-01-19T12:17:57.822Z,100.00
2023-01-19T12:20:24.086Z,100.00
2023-01-19T12:23:18.286Z,100.00
2023-01-19T12:26:01.561Z,100.00
2023-01-19T12:28:33.768Z,100.00
2023-01-19T12:31:01.699Z,99.98
2023-01-19T12:33:28.912Z,99.94
2023-01-19T12:36:00.732Z,99.30
2023-01-19T12:38:35.293Z,99.31
2023-01-19T12:41:22.053Z,99.21
2023-01-19T12:44:09.350Z,99.10
2023-01-19T12:46:38.188Z,99.36
2023-01-19T12:49:26.271Z,98.98
2023-01-19T12:52:11.842Z,99.22
2023-01-19T12:54:43.417Z,98.88
2023-01-19T12:57:24.706Z,98.36
2023-01-19T13:00:07.695Z,97.87
2023-01-19T13:02:46.231Z,97.84
2023-01-19T13:05:21.840Z,97.43
2023-01-19T13:08:06.651Z,97.27
2023-01-19T13:11:09.562Z,97.33
2023-01-19T13:13:38.182Z,98.34
2023-01-19T13:16:20.200Z,98.16
2023-01-19T13:18:49.779Z,97.38
2023-01-19T13:21:35.342Z,96.87
2023-01-19T13:24:07.611Z,96.55
2023-01-19T13:26:38.560Z,96.60
2023-01-19T13:29:13.993Z,96.37
2023-01-19T13:31:42.985Z,96.10
2023-01-19T13:34:17.050Z,96.13
2023-01-19T13:36:46.410Z,96.34
2023-01-19T13:39:20.164Z,96.36
2023-01-19T13:41:47.921Z,96.78
2023-01-19T13:44:25.573Z,96.80
2023-01-19T13:46:53.905Z,97.03
2023-01-19T13:49:23.046Z,97.16
2023-01-19T13:52:04.798Z,96.87
2023-01-19T13:54:31.441Z,97.42
2023-01-19T13:56:57.984Z,97.40
2023-01-19T13:59:24.385Z,97.64
2023-01-19T14:01:51.677Z,97.44
2023-01-19T14:04:28.683Z,97.97
2023-01-19T14:07:04.811Z,98.31
2023-01-19T14:09:31.942Z,98.11
2023-01-19T14:12:06.495Z,97.67
2023-01-19T14:14:33.278Z,97.52
2023-01-19T14:16:59.978Z,97.40
2023-01-19T14:19:26.450Z,97.83
2023-01-19T14:22:03.963Z,97.44
2023-01-19T14:24:33.146Z,97.08
2023-01-19T14:27:23.021Z,96.38
2023-01-19T14:29:53.499Z,96.29
2023-01-19T14:32:22.902Z,96.54
2023-01-19T14:35:09.836Z,96.01
2023-01-19T14:37:38.129Z,95.30
2023-01-19T14:40:21.607Z,95.09
2023-01-19T14:42:57.424Z,94.87
2023-01-19T14:45:30.297Z,94.88
2023-01-19T14:48:05.160Z,94.99
2023-01-19T14:50:37.854Z,94.59
2023-01-19T14:53:18.165Z,94.52
2023-01-19T14:55:51.172Z,94.40
2023-01-19T14:58:20.302Z,94.21
2023-01-19T15:00:48.886Z,93.68
2023-01-19T15:03:15.991Z,93.75
2023-01-19T15:05:46.827Z,93.80
2023-01-19T15:08:25.457Z,94.18
2023-01-19T15:10:51.991Z,93.79
2023-01-19T15:13:21.919Z,93.52
2023-01-19T15:15:49.934Z,93.22
2023-01-19T15:18:27.656Z,93.41
2023-01-19T15:20:55.161Z,92.77
2023-01-19T15:23:21.535Z,92.78
2023-01-19T15:25:48.772Z,92.75
2023-01-19T15:28:19.451Z,93.13
2023-01-19T15:30:46.102Z,93.03
2023-01-19T15:33:19.556Z,92.52
2023-01-19T15:35:45.907Z,92.54
2023-01-19T15:38:12.301Z,92.92
2023-01-19T15:40:38.830Z,92.92
2023-01-19T15:43:05.476Z,92.73
2023-01-19T15:45:48.378Z,92.91
2023-01-19T15:48:14.779Z,93.01
2023-01-19T15:50:43.662Z,93.17
2023-01-19T15:53:14.428Z,92.88
2023-01-19T15:55:40.966Z,92.76
2023-01-19T15:58:07.299Z,92.28
2023-01-19T16:00:34.926Z,92.27
2023-01-19T16:03:02.259Z,91.99
2023-01-19T16:05:41.993Z,91.65
2023-01-19T16:08:09.191Z,91.85
2023-01-19T16:10:35.616Z,91.61
2023-01-19T16:13:03.823Z,91.21
2023-01-19T16:15:30.362Z,90.79
2023-01-19T16:17:56.683Z,90.69
2023-01-19T16:20:23.116Z,90.43
2023-01-19T16:22:49.602Z,90.86
2023-01-19T16:25:15.988Z,90.85
2023-01-19T16:27:42.397Z,90.70
2023-01-19T16:30:12.246Z,90.42
2023-01-19T16:32:38.844Z,90.37
2023-01-19T16:35:05.801Z,89.97
2023-01-19T16:37:32.204Z,89.65
2023-01-19T16:39:58.629Z,89.81
2023-01-19T16:42:25.355Z,89.28
2023-01-19T16:44:51.783Z,89.45
2023-01-19T16:47:18.265Z,89.22
2023-01-19T16:49:44.618Z,89.20
2023-01-19T16:52:11.057Z,88.60
2023-01-19T16:54:39.350Z,88.44
2023-01-19T16:57:05.857Z,88.32
2023-01-19T16:59:32.494Z,88.58
2023-01-19T17:01:59.149Z,88.52
2023-01-19T17:04:27.055Z,87.92
2023-01-19T17:06:54.675Z,87.75
2023-01-19T17:09:21.303Z,87.74
2023-01-19T17:11:47.938Z,88.01
2023-01-19T17:14:17.285Z,87.25
2023-01-19T17:16:44.157Z,86.93
2023-01-19T17:19:14.806Z,86.97
2023-01-19T17:21:41.192Z,86.70
2023-01-19T17:24:07.643Z,86.21
2023-01-19T17:26:34.052Z,86.10
2023-01-19T17:29:02.073Z,85.82
2023-01-19T17:31:44.394Z,85.63
2023-01-19T17:34:10.796Z,85.56
2023-01-19T17:36:37.951Z,85.45
2023-01-19T17:39:06.931Z,85.17
2023-01-19T17:41:35.345Z,85.24
2023-01-19T17:44:03.876Z,85.19
2023-01-19T17:46:31.136Z,84.84
2023-01-19T17:49:00.288Z,84.64
2023-01-19T17:51:27.698Z,85.04
2023-01-19T17:53:55.030Z,84.76
2023-01-19T17:56:27.352Z,84.45
2023-01-19T17:58:53.993Z,84.54
2023-01-19T18:01:22.352Z,84.18
2023-01-19T18:03:49.010Z,84.38
2023-01-19T18:06:15.756Z,84.21
2023-01-19T18:08:43.993Z,83.81
2023-01-19T18:11:10.789Z,84.01
2023-01-19T18:13:37.997Z,83.85
2023-01-19T18:16:08.263Z,83.93
2023-01-19T18:18:35.479Z,84.08
2023-01-19T18:21:04.084Z,84.03
2023-01-19T18:23:30.521Z,84.39
2023-01-19T18:26:05.453Z,84.48
2023-01-19T18:28:32.635Z,84.27
2023-01-19T18:30:59.483Z,85.03
2023-01-19T18:33:27.704Z,85.20
2023-01-19T18:35:55.204Z,85.40
2023-01-19T18:38:21.668Z,85.90
2023-01-19T18:40:48.293Z,86.17
2023-01-19T18:43:15.082Z,86.46
2023-01-19T18:45:42.037Z,86.88
2023-01-19T18:48:14.478Z,87.07
2023-01-19T18:50:40.922Z,87.47
2023-01-19T18:53:07.329Z,87.61
2023-01-19T18:55:33.789Z,88.13
2023-01-19T18:58:00.436Z,88.17
2023-01-19T19:00:26.917Z,88.42
2023-01-19T19:02:55.562Z,88.82
2023-01-19T19:05:21.970Z,89.29
2023-01-19T19:07:48.526Z,89.93
2023-01-19T19:10:15.542Z,89.38
2023-01-19T19:12:41.960Z,89.52
2023-01-19T19:15:09.113Z,88.73
2023-01-19T19:17:35.736Z,88.29
2023-01-19T19:20:02.749Z,87.78
2023-01-19T19:22:29.143Z,87.51
2023-01-19T19:24:55.477Z,87.04
2023-01-19T19:27:21.803Z,87.34
2023-01-19T19:29:48.687Z,87.22
2023-01-19T19:32:20.222Z,87.07
2023-01-19T19:34:53.185Z,87.10
2023-01-19T19:37:19.948Z,87.15
2023-01-19T19:39:47.537Z,87.45
2023-01-19T19:42:13.929Z,87.87
2023-01-19T19:44:40.406Z,87.83
2023-01-19T19:47:06.896Z,87.98
2023-01-19T19:49:33.453Z,88.02
2023-01-19T19:52:00.005Z,88.07
2023-01-19T19:54:26.386Z,88.10
2023-01-19T19:56:53.683Z,88.43
2023-01-19T19:59:31.534Z,88.38
2023-01-19T20:01:57.968Z,88.48
2023-01-19T20:04:25.281Z,88.28
2023-01-19T20:06:51.695Z,88.37
2023-01-19T20:09:18.074Z,88.07
2023-01-19T20:11:46.602Z,88.30
2023-01-19T20:14:15.995Z,88.66
2023-01-19T20:16:42.895Z,88.55
2023-01-19T20:19:09.576Z,88.90
2023-01-19T20:21:37.597Z,88.97
2023-01-19T20:24:06.988Z,89.00
2023-01-19T20:26:35.926Z,89.10
2023-01-19T20:29:06.747Z,89.18
2023-01-19T20:31:40.073Z,89.44
2023-01-19T20:34:09.887Z,89.59
2023-01-19T20:36:36.781Z,90.09
2023-01-19T20:39:08.425Z,90.64
2023-01-19T20:41:42.781Z,91.01
2023-01-19T20:44:18.761Z,91.38
2023-01-19T20:46:45.629Z,91.58
2023-01-19T20:49:12.268Z,91.50
2023-01-19T20:51:43.224Z,91.68
2023-01-19T20:54:11.184Z,91.90
2023-01-19T20:56:38.206Z,92.01
2023-01-19T20:59:04.546Z,92.25
2023-01-19T21:01:31.248Z,92.33
2023-01-19T21:03:57.705Z,92.03
2023-01-19T21:06:24.864Z,92.37
2023-01-19T21:08:51.790Z,92.37
2023-01-19T21:11:20.814Z,92.18
2023-01-19T21:13:48.205Z,92.32
2023-01-19T21:16:15.477Z,92.26
2023-01-19T21:18:41.894Z,92.18
2023-01-19T21:21:14.955Z,92.29
2023-01-19T21:23:47.604Z,92.35
2023-01-19T21:26:14.578Z,92.41
2023-01-19T21:28:41.491Z,92.74
2023-01-19T21:31:10.133Z,92.80
2023-01-19T21:33:36.472Z,93.02
2023-01-19T21:36:03.080Z,93.28
2023-01-19T21:38:30.069Z,93.09
2023-01-19T21:40:57.580Z,93.24
2023-01-19T21:43:25.488Z,93.51
2023-01-19T21:45:52.002Z,93.81
2023-01-19T21:48:19.614Z,93.78
2023-01-19T21:50:46.097Z,94.17
2023-01-19T21:53:12.545Z,94.47
2023-01-19T21:55:43.570Z,94.24
2023-01-19T21:58:09.917Z,94.10
2023-01-19T22:00:36.286Z,93.93
2023-01-19T22:03:04.423Z,94.24
2023-01-19T22:05:36.783Z,94.11
2023-01-19T22:08:04.343Z,94.22
2023-01-19T22:10:30.781Z,94.62
2023-01-19T22:12:57.138Z,94.45
2023-01-19T22:15:23.573Z,94.64
2023-01-19T22:17:49.933Z,94.61
2023-01-19T22:20:16.556Z,94.69
2023-01-19T22:22:42.915Z,94.35
2023-01-19T22:25:09.652Z,94.78
2023-01-19T22:27:37.408Z,94.69
2023-01-19T22:30:04.040Z,94.70
2023-01-19T22:32:31.293Z,94.87
2023-01-19T22:34:57.628Z,95.08
2023-01-19T22:37:23.975Z,94.99
2023-01-19T22:39:50.393Z,95.13
2023-01-19T22:42:16.786Z,95.02
2023-01-19T22:44:43.517Z,94.77
2023-01-19T22:47:10.111Z,94.89
2023-01-19T22:49:36.614Z,95.04
2023-01-19T22:52:03.100Z,95.18
2023-01-19T22:54:30.310Z,95.43
2023-01-19T22:56:56.690Z,95.70
2023-01-19T22:59:23.036Z,95.83
2023-01-19T23:01:50.020Z,95.90
2023-01-19T23:04:16.633Z,95.96
2023-01-19T23:06:43.649Z,95.67
2023-01-19T23:09:12.731Z,95.97
2023-01-19T23:11:41.619Z,96.09
2023-01-19T23:14:12.274Z,95.99
2023-01-19T23:16:38.782Z,95.94
2023-01-19T23:19:05.486Z,95.69
2023-01-19T23:21:32.450Z,95.59
2023-01-19T23:24:01.655Z,95.99
2023-01-19T23:26:30.707Z,96.68
2023-01-19T23:28:59.527Z,96.27
2023-01-19T23:31:27.215Z,96.27
2023-01-19T23:33:56.733Z,96.23
2023-01-19T23:36:25.972Z,96.22
2023-01-19T23:39:04.953Z,96.32
2023-01-19T23:41:34.511Z,96.18
2023-01-19T23:44:01.471Z,96.10
2023-01-19T23:46:28.684Z,96.01
2023-01-19T23:48:55.498Z,96.48
2023-01-19T23:51:24.853Z,96.24
2023-01-19T23:53:51.842Z,95.99
2023-01-19T23:56:20.985Z,96.18
2023-01-19T23:58:52.074Z,96.29
